Girolata — FPOD — position and weather

sailwx.info

Track history (hours):
 
Tides and Currents Weather Stations Pressure Air Temp Water Temp Dewpoint Dewpoint Depression Visibility Wind Speed Wind Dir Waves Ship Positions

Girolata

Last reported at 2017-Sep-18 18:28 UTC. Time now 2017-Sep-20 00:34 UTC.
Position N 43°08' E 005°24'.

Length 177 m; beam 27 m.

Type: Passenger vessel. MMSI: 226245000.

Date/timePositionNaut miles runAvg speedWind from/ knotsBaromVisibWave heightAir tempDewpointWater temp
2017-Sep-18 18:28N 43°08' E 005°24'716.0
2017-Sep-18 18:00N 43°15' E 005°19'4 8.3
2017-Sep-18 17:28N 43°19' E 005°22'0 0.0
2017-Sep-18 06:37N 43°19' E 005°22'0 0.0
2017-Sep-18 06:25N 43°19' E 005°22'0 0.0
2017-Sep-18 05:58N 43°19' E 005°22'0 0.0
2017-Sep-18 05:28N 43°19' E 005°22'0 0.0
2017-Sep-18 05:01N 43°19' E 005°22'0 0.7
2017-Sep-18 04:30N 43°18' E 005°22'511.0
2017-Sep-18 04:00N 43°14' E 005°18'21 0.6
2017-Sep-16 19:13N 43°00' E 005°41'314.5
2017-Sep-16 18:59N 43°02' E 005°37'714.5
2017-Sep-16 18:30N 43°05' E 005°29'714.0
2017-Sep-16 18:01N 43°09' E 005°21'714.5
2017-Sep-16 17:30N 43°17' E 005°20'3 5.0
2017-Sep-16 17:00N 43°19' E 005°22'0 0.0
2017-Sep-16 16:26N 43°19' E 005°22'0 0.0
2017-Sep-16 16:00N 43°19' E 005°22'0 0.0
2017-Sep-16 15:26N 43°19' E 005°22'0 0.0
2017-Sep-16 15:00N 43°19' E 005°22'0 0.0
2017-Sep-16 14:30N 43°19' E 005°22'0 0.0
2017-Sep-16 13:56N 43°19' E 005°22'0 0.0
2017-Sep-16 13:26N 43°19' E 005°22'0 0.0
2017-Sep-16 12:56N 43°19' E 005°22'0 0.0
2017-Sep-16 12:29N 43°19' E 005°22'0 0.0
2017-Sep-16 11:56N 43°19' E 005°22'0 0.0
2017-Sep-16 11:26N 43°19' E 005°22'0 0.0
2017-Sep-16 10:44N 43°19' E 005°22'0 0.0
2017-Sep-16 10:23N 43°19' E 005°22'0 0.0
2017-Sep-16 10:00N 43°19' E 005°22'0 0.0
2017-Sep-16 09:26N 43°19' E 005°22'0 0.0
2017-Sep-16 08:50N 43°19' E 005°22'0 0.0
2017-Sep-16 08:30N 43°19' E 005°22'0 0.0
2017-Sep-16 07:59N 43°19' E 005°22'0 0.0
2017-Sep-16 07:29N 43°19' E 005°22'0 0.0
2017-Sep-16 07:00N 43°19' E 005°22'0 0.0
2017-Sep-16 06:26N 43°19' E 005°22'0 0.0
2017-Sep-16 05:59N 43°19' E 005°22'0 0.0
2017-Sep-16 05:29N 43°19' E 005°22'0 0.0
2017-Sep-16 05:00N 43°19' E 005°22'0 0.9
2017-Sep-16 04:30N 43°18' E 005°22'510.5
2017-Sep-16 04:01N 43°14' E 005°18'816.2
2017-Sep-16 03:30N 43°07' E 005°25'816.4
2017-Sep-16 03:00N 43°03' E 005°34'155 6.7
2017-Sep-15 03:49N 41°51' E 008°40'2916.1
2017-Sep-15 02:02N 42°01' E 008°04'517.0
2017-Sep-15 01:43N 42°03' E 007°58'417.0
2017-Sep-15 01:30N 42°05' E 007°53'817.1
2017-Sep-15 01:01N 42°10' E 007°43'917.4
2017-Sep-15 00:31N 42°14' E 007°33'917.2
2017-Sep-15 00:00N 42°18' E 007°23'3717.1
2017-Sep-14 21:51N 42°36' E 006°40'617.2
2017-Sep-14 21:31N 42°39' E 006°32'5917.0
2017-Sep-14 18:03N 43°08' E 005°23'116.3
2017-Sep-14 18:00N 43°09' E 005°22'715.1
2017-Sep-14 17:30N 43°16' E 005°19'4 7.3
2017-Sep-14 17:01N 43°19' E 005°22'0 0.0
2017-Sep-14 16:25N 43°19' E 005°22'0 0.0
2017-Sep-14 15:55N 43°19' E 005°22'0 0.0
2017-Sep-14 15:07N 43°19' E 005°22'0 0.0
2017-Sep-14 14:52N 43°19' E 005°22'0 0.0
2017-Sep-14 14:25N 43°19' E 005°22'0 0.0
2017-Sep-14 13:58N 43°19' E 005°22'0 0.0
2017-Sep-14 13:22N 43°19' E 005°22'0 0.0
2017-Sep-14 12:58N 43°19' E 005°22'0 0.0
2017-Sep-14 12:31N 43°19' E 005°22'0 0.0
2017-Sep-14 12:01N 43°19' E 005°22'0 0.0
2017-Sep-14 11:28N 43°19' E 005°22'0 0.0
2017-Sep-14 10:52N 43°19' E 005°22'0 0.0
2017-Sep-14 10:28N 43°19' E 005°22'0 0.0
2017-Sep-14 09:58N 43°19' E 005°22'0 0.0
2017-Sep-14 09:31N 43°19' E 005°22'0 0.0
2017-Sep-14 09:01N 43°19' E 005°22'0 0.0
2017-Sep-14 08:31N 43°19' E 005°22'0 0.0
2017-Sep-14 07:28N 43°19' E 005°22'0 0.0
2017-Sep-14 07:01N 43°19' E 005°22'0 0.0
2017-Sep-14 06:31N 43°19' E 005°22'0 0.0
2017-Sep-14 06:01N 43°19' E 005°22'0 0.0
2017-Sep-14 05:31N 43°19' E 005°22'0 0.1
2017-Sep-14 05:00N 43°19' E 005°22'3 5.8
2017-Sep-14 04:30N 43°17' E 005°19'612.8
2017-Sep-14 04:00N 43°10' E 005°20'816.4
2017-Sep-14 03:31N 43°05' E 005°29'816.2
2017-Sep-14 03:01N 43°01' E 005°39'816.1
2017-Sep-14 02:30N 42°56' E 005°48'20 0.6
2017-Sep-12 18:16N 43°07' E 005°24'416.5
2017-Sep-12 18:00N 43°10' E 005°21'713.3
2017-Sep-12 17:30N 43°17' E 005°20'2 4.9
2017-Sep-12 17:01N 43°19' E 005°22'0 0.0
2017-Sep-12 16:31N 43°19' E 005°22'0 0.0
2017-Sep-12 15:58N 43°19' E 005°22'0 0.0
2017-Sep-12 15:28N 43°19' E 005°22'0 0.0
2017-Sep-12 14:58N 43°19' E 005°22'0 0.0
2017-Sep-12 14:25N 43°19' E 005°22'0 0.0
2017-Sep-12 13:52N 43°19' E 005°22'0 0.0
2017-Sep-12 13:13N 43°19' E 005°22'0 0.0
2017-Sep-12 12:52N 43°19' E 005°22'0 0.0
2017-Sep-12 12:25N 43°19' E 005°22'0 0.0
2017-Sep-12 11:46N 43°19' E 005°22'0 0.0
2017-Sep-12 11:28N 43°19' E 005°22'0 0.0
2017-Sep-12 10:25N 43°19' E 005°22'0 0.0
2017-Sep-12 09:49N 43°19' E 005°22'0 0.0
2017-Sep-12 09:13N 43°19' E 005°22'0 0.0
2017-Sep-12 08:58N 43°19' E 005°22'0 0.0
2017-Sep-12 08:28N 43°19' E 005°22'0 0.0
2017-Sep-12 07:43N 43°19' E 005°22'0 0.0
2017-Sep-12 07:25N 43°19' E 005°22'0 0.0
2017-Sep-12 06:55N 43°19' E 005°22'0 0.0
2017-Sep-12 06:25N 43°19' E 005°22'0 0.0
2017-Sep-12 05:58N 43°19' E 005°22'0 0.0
2017-Sep-12 05:31N 43°19' E 005°22'0 0.0
2017-Sep-12 05:01N 43°19' E 005°22'1 1.8
2017-Sep-12 04:30N 43°18' E 005°21'611.4
2017-Sep-12 04:01N 43°13' E 005°18'915.9
2017-Sep-12 03:26N 43°06' E 005°27'4 0.1
2017-Sep-10 18:13N 43°08' E 005°22'317.2
2017-Sep-10 18:00N 43°11' E 005°19'611.7
2017-Sep-10 17:29N 43°17' E 005°20'2 4.3
2017-Sep-10 17:00N 43°19' E 005°22'0 0.0
2017-Sep-10 16:30N 43°19' E 005°22'0 0.0
2017-Sep-10 15:57N 43°19' E 005°22'0 0.0
2017-Sep-10 15:27N 43°19' E 005°22'0 0.0
2017-Sep-10 14:51N 43°19' E 005°22'0 0.0
2017-Sep-10 13:54N 43°19' E 005°22'0 0.0
2017-Sep-10 13:15N 43°19' E 005°22'0 0.0
2017-Sep-10 12:57N 43°19' E 005°22'0 0.0
2017-Sep-10 12:27N 43°19' E 005°22'0 0.0
2017-Sep-10 11:51N 43°19' E 005°22'0 0.0
2017-Sep-10 11:27N 43°19' E 005°22'0 0.0
2017-Sep-10 10:57N 43°19' E 005°22'0 0.0
2017-Sep-10 10:24N 43°19' E 005°22'0 0.0
2017-Sep-10 10:00N 43°19' E 005°22'0 0.0
2017-Sep-10 09:30N 43°19' E 005°22'0 0.0
2017-Sep-10 09:00N 43°19' E 005°22'0 0.0
2017-Sep-10 08:27N 43°19' E 005°22'0 0.0
2017-Sep-10 08:00N 43°19' E 005°22'0 0.0
2017-Sep-10 07:30N 43°19' E 005°22'0 0.0
2017-Sep-10 07:00N 43°19' E 005°22'0 0.0
2017-Sep-10 06:30N 43°19' E 005°22'0 0.0
2017-Sep-10 06:00N 43°19' E 005°22'0 0.1
2017-Sep-10 05:30N 43°19' E 005°22'3 6.9
2017-Sep-10 05:00N 43°16' E 005°19'714.2
2017-Sep-10 04:30N 43°09' E 005°22'81 2.7
2017-Sep-08 22:47N 42°29' E 006°57'5217.4
2017-Sep-08 19:48N 42°54' E 005°55'517.6
2017-Sep-08 19:30N 42°57' E 005°49'  
Track history (hours):
 
Tides and Currents Weather Stations Pressure Air Temp Water Temp Dewpoint Dewpoint Depression Visibility Wind Speed Wind Dir Waves Ship Positions

Girolata

Last reported at 2017-Sep-18 18:28 UTC. Time now 2017-Sep-20 00:34 UTC.
Position N 43°08' E 005°24'.

Length 177 m; beam 27 m.

Type: Passenger vessel. MMSI: 226245000.

Date/timePositionNaut miles runAvg speedWind from/ knotsBaromVisibWave heightAir tempDewpointWater temp
2017-Sep-18 18:28N 43°08' E 005°24'716.0
2017-Sep-18 18:00N 43°15' E 005°19'4 8.3
2017-Sep-18 17:28N 43°19' E 005°22'0 0.0
2017-Sep-18 06:37N 43°19' E 005°22'0 0.0
2017-Sep-18 06:25N 43°19' E 005°22'0 0.0
2017-Sep-18 05:58N 43°19' E 005°22'0 0.0
2017-Sep-18 05:28N 43°19' E 005°22'0 0.0
2017-Sep-18 05:01N 43°19' E 005°22'0 0.7
2017-Sep-18 04:30N 43°18' E 005°22'511.0
2017-Sep-18 04:00N 43°14' E 005°18'21 0.6
2017-Sep-16 19:13N 43°00' E 005°41'314.5
2017-Sep-16 18:59N 43°02' E 005°37'714.5
2017-Sep-16 18:30N 43°05' E 005°29'714.0
2017-Sep-16 18:01N 43°09' E 005°21'714.5
2017-Sep-16 17:30N 43°17' E 005°20'3 5.0
2017-Sep-16 17:00N 43°19' E 005°22'0 0.0
2017-Sep-16 16:26N 43°19' E 005°22'0 0.0
2017-Sep-16 16:00N 43°19' E 005°22'0 0.0
2017-Sep-16 15:26N 43°19' E 005°22'0 0.0
2017-Sep-16 15:00N 43°19' E 005°22'0 0.0
2017-Sep-16 14:30N 43°19' E 005°22'0 0.0
2017-Sep-16 13:56N 43°19' E 005°22'0 0.0
2017-Sep-16 13:26N 43°19' E 005°22'0 0.0
2017-Sep-16 12:56N 43°19' E 005°22'0 0.0
2017-Sep-16 12:29N 43°19' E 005°22'0 0.0
2017-Sep-16 11:56N 43°19' E 005°22'0 0.0
2017-Sep-16 11:26N 43°19' E 005°22'0 0.0
2017-Sep-16 10:44N 43°19' E 005°22'0 0.0
2017-Sep-16 10:23N 43°19' E 005°22'0 0.0
2017-Sep-16 10:00N 43°19' E 005°22'0 0.0
2017-Sep-16 09:26N 43°19' E 005°22'0 0.0
2017-Sep-16 08:50N 43°19' E 005°22'0 0.0
2017-Sep-16 08:30N 43°19' E 005°22'0 0.0
2017-Sep-16 07:59N 43°19' E 005°22'0 0.0
2017-Sep-16 07:29N 43°19' E 005°22'0 0.0
2017-Sep-16 07:00N 43°19' E 005°22'0 0.0
2017-Sep-16 06:26N 43°19' E 005°22'0 0.0
2017-Sep-16 05:59N 43°19' E 005°22'0 0.0
2017-Sep-16 05:29N 43°19' E 005°22'0 0.0
2017-Sep-16 05:00N 43°19' E 005°22'0 0.9
2017-Sep-16 04:30N 43°18' E 005°22'510.5
2017-Sep-16 04:01N 43°14' E 005°18'816.2
2017-Sep-16 03:30N 43°07' E 005°25'816.4
2017-Sep-16 03:00N 43°03' E 005°34'155 6.7
2017-Sep-15 03:49N 41°51' E 008°40'2916.1
2017-Sep-15 02:02N 42°01' E 008°04'517.0
2017-Sep-15 01:43N 42°03' E 007°58'417.0
2017-Sep-15 01:30N 42°05' E 007°53'817.1
2017-Sep-15 01:01N 42°10' E 007°43'917.4
2017-Sep-15 00:31N 42°14' E 007°33'917.2
2017-Sep-15 00:00N 42°18' E 007°23'3717.1
2017-Sep-14 21:51N 42°36' E 006°40'617.2
2017-Sep-14 21:31N 42°39' E 006°32'5917.0
2017-Sep-14 18:03N 43°08' E 005°23'116.3
2017-Sep-14 18:00N 43°09' E 005°22'715.1
2017-Sep-14 17:30N 43°16' E 005°19'4 7.3
2017-Sep-14 17:01N 43°19' E 005°22'0 0.0
2017-Sep-14 16:25N 43°19' E 005°22'0 0.0
2017-Sep-14 15:55N 43°19' E 005°22'0 0.0
2017-Sep-14 15:07N 43°19' E 005°22'0 0.0
2017-Sep-14 14:52N 43°19' E 005°22'0 0.0
2017-Sep-14 14:25N 43°19' E 005°22'0 0.0
2017-Sep-14 13:58N 43°19' E 005°22'0 0.0
2017-Sep-14 13:22N 43°19' E 005°22'0 0.0
2017-Sep-14 12:58N 43°19' E 005°22'0 0.0
2017-Sep-14 12:31N 43°19' E 005°22'0 0.0
2017-Sep-14 12:01N 43°19' E 005°22'0 0.0
2017-Sep-14 11:28N 43°19' E 005°22'0 0.0
2017-Sep-14 10:52N 43°19' E 005°22'0 0.0
2017-Sep-14 10:28N 43°19' E 005°22'0 0.0
2017-Sep-14 09:58N 43°19' E 005°22'0 0.0
2017-Sep-14 09:31N 43°19' E 005°22'0 0.0
2017-Sep-14 09:01N 43°19' E 005°22'0 0.0
2017-Sep-14 08:31N 43°19' E 005°22'0 0.0
2017-Sep-14 07:28N 43°19' E 005°22'0 0.0
2017-Sep-14 07:01N 43°19' E 005°22'0 0.0
2017-Sep-14 06:31N 43°19' E 005°22'0 0.0
2017-Sep-14 06:01N 43°19' E 005°22'0 0.0
2017-Sep-14 05:31N 43°19' E 005°22'0 0.1
2017-Sep-14 05:00N 43°19' E 005°22'3 5.8
2017-Sep-14 04:30N 43°17' E 005°19'612.8
2017-Sep-14 04:00N 43°10' E 005°20'816.4
2017-Sep-14 03:31N 43°05' E 005°29'816.2
2017-Sep-14 03:01N 43°01' E 005°39'816.1
2017-Sep-14 02:30N 42°56' E 005°48'20 0.6
2017-Sep-12 18:16N 43°07' E 005°24'416.5
2017-Sep-12 18:00N 43°10' E 005°21'713.3
2017-Sep-12 17:30N 43°17' E 005°20'2 4.9
2017-Sep-12 17:01N 43°19' E 005°22'0 0.0
2017-Sep-12 16:31N 43°19' E 005°22'0 0.0
2017-Sep-12 15:58N 43°19' E 005°22'0 0.0
2017-Sep-12 15:28N 43°19' E 005°22'0 0.0
2017-Sep-12 14:58N 43°19' E 005°22'0 0.0
2017-Sep-12 14:25N 43°19' E 005°22'0 0.0
2017-Sep-12 13:52N 43°19' E 005°22'0 0.0
2017-Sep-12 13:13N 43°19' E 005°22'0 0.0
2017-Sep-12 12:52N 43°19' E 005°22'0 0.0
2017-Sep-12 12:25N 43°19' E 005°22'0 0.0
2017-Sep-12 11:46N 43°19' E 005°22'0 0.0
2017-Sep-12 11:28N 43°19' E 005°22'0 0.0
2017-Sep-12 10:25N 43°19' E 005°22'0 0.0
2017-Sep-12 09:49N 43°19' E 005°22'0 0.0
2017-Sep-12 09:13N 43°19' E 005°22'0 0.0
2017-Sep-12 08:58N 43°19' E 005°22'0 0.0
2017-Sep-12 08:28N 43°19' E 005°22'0 0.0
2017-Sep-12 07:43N 43°19' E 005°22'0 0.0
2017-Sep-12 07:25N 43°19' E 005°22'0 0.0
2017-Sep-12 06:55N 43°19' E 005°22'0 0.0
2017-Sep-12 06:25N 43°19' E 005°22'0 0.0
2017-Sep-12 05:58N 43°19' E 005°22'0 0.0
2017-Sep-12 05:31N 43°19' E 005°22'0 0.0
2017-Sep-12 05:01N 43°19' E 005°22'1 1.8
2017-Sep-12 04:30N 43°18' E 005°21'611.4
2017-Sep-12 04:01N 43°13' E 005°18'915.9
2017-Sep-12 03:26N 43°06' E 005°27'4 0.1
2017-Sep-10 18:13N 43°08' E 005°22'317.2
2017-Sep-10 18:00N 43°11' E 005°19'611.7
2017-Sep-10 17:29N 43°17' E 005°20'2 4.3
2017-Sep-10 17:00N 43°19' E 005°22'0 0.0
2017-Sep-10 16:30N 43°19' E 005°22'0 0.0
2017-Sep-10 15:57N 43°19' E 005°22'0 0.0
2017-Sep-10 15:27N 43°19' E 005°22'0 0.0
2017-Sep-10 14:51N 43°19' E 005°22'0 0.0
2017-Sep-10 13:54N 43°19' E 005°22'0 0.0
2017-Sep-10 13:15N 43°19' E 005°22'0 0.0
2017-Sep-10 12:57N 43°19' E 005°22'0 0.0
2017-Sep-10 12:27N 43°19' E 005°22'0 0.0
2017-Sep-10 11:51N 43°19' E 005°22'0 0.0
2017-Sep-10 11:27N 43°19' E 005°22'0 0.0
2017-Sep-10 10:57N 43°19' E 005°22'0 0.0
2017-Sep-10 10:24N 43°19' E 005°22'0 0.0
2017-Sep-10 10:00N 43°19' E 005°22'0 0.0
2017-Sep-10 09:30N 43°19' E 005°22'0 0.0
2017-Sep-10 09:00N 43°19' E 005°22'0 0.0
2017-Sep-10 08:27N 43°19' E 005°22'0 0.0
2017-Sep-10 08:00N 43°19' E 005°22'0 0.0
2017-Sep-10 07:30N 43°19' E 005°22'0 0.0
2017-Sep-10 07:00N 43°19' E 005°22'0 0.0
2017-Sep-10 06:30N 43°19' E 005°22'0 0.0
2017-Sep-10 06:00N 43°19' E 005°22'0 0.1
2017-Sep-10 05:30N 43°19' E 005°22'3 6.9
2017-Sep-10 05:00N 43°16' E 005°19'714.2
2017-Sep-10 04:30N 43°09' E 005°22'81 2.7
2017-Sep-08 22:47N 42°29' E 006°57'5217.4
2017-Sep-08 19:48N 42°54' E 005°55'517.6
2017-Sep-08 19:30N 42°57' E 005°49'  

Dump ship's entire track history